createdAt,value
2022-09-07T00:05:32.555Z,1.80
2022-09-07T00:11:59.563Z,1.80
2022-09-07T00:18:23.930Z,1.90
2022-09-07T00:24:48.496Z,2.00
2022-09-07T00:31:12.864Z,2.20
2022-09-07T00:37:37.210Z,1.80
2022-09-07T00:44:19.603Z,2.20
2022-09-07T00:50:44.052Z,2.20
2022-09-07T00:57:08.374Z,2.10
2022-09-07T01:03:32.597Z,2.40
2022-09-07T01:09:56.894Z,2.10
2022-09-07T01:16:23.864Z,1.90
2022-09-07T01:23:03.558Z,2.10
2022-09-07T01:29:26.956Z,2.20
2022-09-07T01:35:51.441Z,2.10
2022-09-07T01:42:14.379Z,2.00
2022-09-07T01:48:38.754Z,1.90
2022-09-07T01:55:14.821Z,2.00
2022-09-07T02:01:39.254Z,2.20
2022-09-07T02:08:11.803Z,2.00
2022-09-07T02:15:00.416Z,2.30
2022-09-07T02:27:31.849Z,1.80
2022-09-07T02:33:56.363Z,2.30
2022-09-07T02:40:20.634Z,2.20
2022-09-07T02:46:53.836Z,2.30
2022-09-07T02:53:22.691Z,2.10
2022-09-07T02:59:59.359Z,2.30
2022-09-07T03:06:26.436Z,2.40
2022-09-07T03:12:50.901Z,2.70
2022-09-07T03:19:15.311Z,2.30
2022-09-07T03:25:39.521Z,2.60
2022-09-07T03:31:56.493Z,2.50
2022-09-07T03:38:20.833Z,2.30
2022-09-07T03:44:45.260Z,2.50
2022-09-07T03:51:09.657Z,2.60
2022-09-07T03:57:33.968Z,2.30
2022-09-07T04:04:01.990Z,2.70
2022-09-07T04:10:26.845Z,2.80
2022-09-07T04:16:53.846Z,2.40
2022-09-07T04:23:18.198Z,2.30
2022-09-07T04:29:42.408Z,2.30
2022-09-07T04:36:06.783Z,2.50
2022-09-07T04:42:31.029Z,1.90
2022-09-07T04:48:55.414Z,2.20
2022-09-07T04:55:19.850Z,2.00
2022-09-07T05:01:44.828Z,2.20
2022-09-07T05:08:09.335Z,2.30
2022-09-07T05:14:33.640Z,2.30
2022-09-07T05:20:57.980Z,2.30
2022-09-07T05:27:22.754Z,2.20
2022-09-07T05:40:31.340Z,2.10
2022-09-07T05:46:55.764Z,2.00
2022-09-07T05:53:20.074Z,2.00
2022-09-07T05:59:42.997Z,2.20
2022-09-07T06:06:07.542Z,2.20
2022-09-07T06:12:32.044Z,2.20
2022-09-07T06:18:56.242Z,1.90
2022-09-07T06:25:20.488Z,1.80
2022-09-07T06:38:31.854Z,2.10
2022-09-07T06:44:56.387Z,2.00
2022-09-07T06:51:20.710Z,2.00
2022-09-07T06:57:45.068Z,2.40
2022-09-07T07:04:09.266Z,1.70
2022-09-07T07:10:33.483Z,1.80
2022-09-07T07:17:06.870Z,1.80
2022-09-07T07:23:32.800Z,1.50
2022-09-07T07:29:57.224Z,2.10
2022-09-07T07:36:21.593Z,1.80
2022-09-07T07:42:45.857Z,1.50
2022-09-07T07:49:10.169Z,2.00
2022-09-07T07:55:49.844Z,1.50
2022-09-07T08:02:05.285Z,1.40
2022-09-07T08:08:30.059Z,1.40
2022-09-07T08:14:54.264Z,1.60
2022-09-07T08:21:18.610Z,1.50
2022-09-07T08:27:42.913Z,1.20
2022-09-07T08:34:07.096Z,1.50
2022-09-07T08:40:31.310Z,1.30
2022-09-07T08:46:55.627Z,1.50
2022-09-07T08:53:47.697Z,1.10
2022-09-07T09:00:20.837Z,1.30
2022-09-07T09:06:53.942Z,1.00
2022-09-07T09:13:36.801Z,1.10
2022-09-07T09:20:19.226Z,1.00
2022-09-07T09:26:55.726Z,1.10
2022-09-07T09:33:36.985Z,1.10
2022-09-07T09:40:13.350Z,1.10
2022-09-07T09:46:37.812Z,1.10
2022-09-07T09:53:02.232Z,1.00
2022-09-07T10:06:18.869Z,1.10
2022-09-07T10:12:43.146Z,1.00
2022-09-07T10:19:07.307Z,0.70
2022-09-07T10:25:34.443Z,0.90
2022-09-07T10:32:07.645Z,0.80
2022-09-07T10:38:43.966Z,0.80
2022-09-07T10:45:11.050Z,1.00
2022-09-07T10:51:38.884Z,1.20
2022-09-07T10:59:01.042Z,0.70
2022-09-07T11:05:10.713Z,0.70
2022-09-07T11:18:28.345Z,0.90
2022-09-07T11:31:48.930Z,0.80
2022-09-07T11:38:11.782Z,0.90
2022-09-07T11:44:39.010Z,0.60
2022-09-07T11:51:03.241Z,0.70
2022-09-07T11:57:27.796Z,0.60
2022-09-07T12:04:04.162Z,0.50
2022-09-07T12:10:31.687Z,0.70
2022-09-07T12:17:17.384Z,0.70
2022-09-07T12:23:57.110Z,0.60
2022-09-07T12:30:21.413Z,0.70
2022-09-07T12:36:43.948Z,0.50
2022-09-07T12:43:09.985Z,0.60
2022-09-07T12:49:49.475Z,0.90
2022-09-07T12:56:19.524Z,0.50
2022-09-07T13:02:41.798Z,0.80
2022-09-07T13:09:11.925Z,0.70
2022-09-07T13:15:36.257Z,0.60
2022-09-07T13:22:09.984Z,0.60
2022-09-07T13:28:47.495Z,0.70
2022-09-07T13:35:21.272Z,0.60
2022-09-07T13:41:48.457Z,0.50
2022-09-07T13:48:10.816Z,0.80
2022-09-07T13:54:36.706Z,0.70
2022-09-07T14:01:01.059Z,0.70
2022-09-07T14:07:25.431Z,0.60
2022-09-07T14:13:52.522Z,0.60
2022-09-07T14:20:16.785Z,0.60
2022-09-07T14:26:59.061Z,0.50
2022-09-07T14:33:23.246Z,0.60
2022-09-07T14:39:47.504Z,0.70
2022-09-07T14:46:17.878Z,0.60
2022-09-07T14:53:33.268Z,0.50
2022-09-07T14:59:26.440Z,0.60
2022-09-07T15:05:55.504Z,0.80
2022-09-07T15:12:32.725Z,0.60
2022-09-07T15:18:59.923Z,0.50
2022-09-07T15:25:24.217Z,0.70
2022-09-07T15:32:01.091Z,0.50
2022-09-07T15:45:12.205Z,0.60
2022-09-07T15:58:21.128Z,0.50
2022-09-07T16:04:45.537Z,0.30
2022-09-07T16:11:13.893Z,0.50
2022-09-07T16:17:47.519Z,0.50
2022-09-07T16:24:12.915Z,0.40
2022-09-07T16:30:37.155Z,0.50
2022-09-07T16:37:01.467Z,0.60
2022-09-07T16:43:25.694Z,0.50
2022-09-07T16:49:50.658Z,0.50
2022-09-07T16:56:16.971Z,0.50
2022-09-07T17:02:41.485Z,0.50
2022-09-07T17:09:05.782Z,0.40
2022-09-07T17:15:30.029Z,0.60
2022-09-07T17:21:57.668Z,0.60
2022-09-07T17:34:26.028Z,0.50
2022-09-07T17:40:50.361Z,0.40
2022-09-07T17:47:14.707Z,0.70
2022-09-07T17:53:39.010Z,0.90
2022-09-07T18:00:11.439Z,0.70
2022-09-07T18:06:36.303Z,0.50
2022-09-07T18:13:03.348Z,0.80
2022-09-07T18:19:30.375Z,0.70
2022-09-07T18:25:54.580Z,0.80
2022-09-07T18:32:18.770Z,0.80
2022-09-07T18:38:43.186Z,0.50
2022-09-07T18:58:38.804Z,2.10
2022-09-07T19:11:47.235Z,1.60
2022-09-07T19:18:11.434Z,2.00
2022-09-07T19:24:35.702Z,1.50
2022-09-07T19:31:01.128Z,1.70
2022-09-07T19:37:28.136Z,1.50
2022-09-07T19:43:52.304Z,1.40
2022-09-07T19:50:16.581Z,1.50
2022-09-07T19:56:43.308Z,1.40
2022-09-07T20:03:07.665Z,1.40
2022-09-07T20:09:40.367Z,1.70
2022-09-07T20:16:06.257Z,1.10
2022-09-07T20:22:30.497Z,1.50
2022-09-07T20:29:16.409Z,1.60
2022-09-07T20:35:40.781Z,1.60
2022-09-07T20:42:05.120Z,1.70
2022-09-07T20:48:29.332Z,1.50
2022-09-07T20:54:53.563Z,1.70
2022-09-07T21:01:18.054Z,1.80
2022-09-07T21:07:42.481Z,1.90
2022-09-07T21:14:06.714Z,1.50
2022-09-07T21:20:30.924Z,1.80
2022-09-07T21:26:55.139Z,2.00
2022-09-07T21:33:20.345Z,1.50
2022-09-07T21:39:44.910Z,1.40
2022-09-07T21:46:09.330Z,1.90
2022-09-07T21:52:33.627Z,1.90
2022-09-07T21:58:57.901Z,1.60
2022-09-07T22:05:22.309Z,1.50
2022-09-07T22:11:46.541Z,1.70
2022-09-07T22:18:10.729Z,1.80
2022-09-07T22:24:37.505Z,1.90
2022-09-07T22:31:01.763Z,1.60
2022-09-07T22:37:28.753Z,1.80
2022-09-07T22:43:52.996Z,1.70
2022-09-07T22:50:17.323Z,1.80
2022-09-07T22:56:41.618Z,1.50
2022-09-07T23:03:05.877Z,1.60
2022-09-07T23:09:32.941Z,1.50
2022-09-07T23:15:57.251Z,1.80
2022-09-07T23:22:21.449Z,2.50
2022-09-07T23:28:45.724Z,2.20
2022-09-07T23:35:12.681Z,1.80
2022-09-07T23:41:40.394Z,1.60
2022-09-07T23:48:04.377Z,1.60
2022-09-07T23:54:28.612Z,2.00
